Time;durP1;ratioP1;P1;durP2;ratioP2;P2;SDS_P1;SDS_P2;PMS_P1;PMS_P2;Temp;Humidity;BMP_temperature;BMP_pressure;BME280_temperature;BME280_humidity;BME280_pressure;Samples;Min_cycle;Max_cycle;Signal;HPM_P1;HPM_P2
2023/04/15 00:01:28;;;;;;;13.25;7.20;;;7.20;99.90;;;;;;5006371;28;20053;-71
2023/04/15 00:03:54;;;;;;;12.98;6.28;;;7.10;99.90;;;;;;5006833;28;20064;-72
2023/04/15 00:06:21;;;;;;;12.52;6.72;;;7.10;99.90;;;;;;5007534;28;20118;-71
2023/04/15 00:08:47;;;;;;;12.18;6.47;;;7.00;99.90;;;;;;5008130;28;20124;-73
2023/04/15 00:11:13;;;;;;;13.23;6.45;;;7.00;99.90;;;;;;5006314;28;20060;-72
2023/04/15 00:13:42;;;;;;;11.90;7.10;;;7.00;99.90;;;;;;5000124;28;20038;-72
2023/04/15 00:16:09;;;;;;;10.55;7.43;;;7.00;99.90;;;;;;5018677;28;20115;-71
2023/04/15 00:18:36;;;;;;;10.02;6.72;;;7.00;99.90;;;;;;4990514;28;20041;-74
2023/04/15 00:21:03;;;;;;;11.77;7.45;;;6.90;99.90;;;;;;5000394;28;20111;-71
2023/04/15 00:23:29;;;;;;;10.40;7.03;;;6.90;99.90;;;;;;4992414;28;20052;-71
2023/04/15 00:25:55;;;;;;;11.45;6.97;;;6.90;99.90;;;;;;5018126;28;20102;-71
2023/04/15 00:28:21;;;;;;;11.32;7.43;;;6.80;99.90;;;;;;4991122;28;20049;-71
2023/04/15 00:30:47;;;;;;;10.98;7.38;;;6.80;99.90;;;;;;5001983;28;20396;-71
2023/04/15 00:33:13;;;;;;;13.13;7.85;;;6.80;99.90;;;;;;5022543;28;20192;-72
2023/04/15 00:35:39;;;;;;;12.07;7.70;;;6.70;99.90;;;;;;5007187;28;20106;-72
2023/04/15 00:38:08;;;;;;;10.88;7.25;;;6.70;99.90;;;;;;5006266;28;20053;-72
2023/04/15 00:40:34;;;;;;;12.68;7.38;;;6.70;99.90;;;;;;4990131;28;20049;-73
2023/04/15 00:43:04;;;;;;;12.05;7.90;;;6.70;99.90;;;;;;5007392;28;20045;-72
2023/04/15 00:45:30;;;;;;;11.90;7.77;;;6.60;99.90;;;;;;4973489;28;20052;-73
2023/04/15 00:47:56;;;;;;;11.65;8.13;;;6.60;99.90;;;;;;4989573;28;20304;-72
2023/04/15 00:50:22;;;;;;;12.77;8.65;;;6.60;99.90;;;;;;4944579;28;20099;-72
2023/04/15 00:52:48;;;;;;;9.98;7.82;;;6.60;99.90;;;;;;4982948;28;20512;-72
2023/04/15 00:55:14;;;;;;;11.15;8.50;;;6.60;99.90;;;;;;5008342;28;20048;-72
2023/04/15 00:57:40;;;;;;;14.02;8.88;;;6.50;99.90;;;;;;5004626;28;20120;-73
2023/04/15 01:00:07;;;;;;;13.75;8.13;;;6.50;99.90;;;;;;5003539;28;20094;-72
2023/04/15 01:02:35;;;;;;;12.32;9.25;;;6.50;99.90;;;;;;5005516;28;20524;-68
2023/04/15 01:05:02;;;;;;;12.57;8.35;;;6.50;99.90;;;;;;4988524;28;20072;-68
2023/04/15 01:07:28;;;;;;;14.80;9.18;;;6.50;99.90;;;;;;5004733;28;20045;-68
2023/04/15 01:09:54;;;;;;;12.73;9.15;;;6.40;99.90;;;;;;4990537;28;20049;-68
2023/04/15 01:12:20;;;;;;;11.15;8.82;;;6.40;99.90;;;;;;4953767;28;20096;-68
2023/04/15 01:14:49;;;;;;;13.32;9.18;;;6.40;99.90;;;;;;4967513;28;20038;-68
2023/04/15 01:17:15;;;;;;;12.30;9.15;;;6.40;99.90;;;;;;4989440;28;20053;-68
2023/04/15 01:19:41;;;;;;;14.32;9.52;;;6.30;99.90;;;;;;5005205;28;20155;-68
2023/04/15 01:22:08;;;;;;;13.23;9.90;;;6.30;99.90;;;;;;4973513;28;20053;-68
2023/04/15 01:24:35;;;;;;;11.55;9.45;;;6.30;99.90;;;;;;5002673;28;20053;-68
2023/04/15 01:27:04;;;;;;;13.40;9.70;;;6.30;99.90;;;;;;5004086;28;20496;-68
2023/04/15 01:29:36;;;;;;;13.50;9.30;;;6.30;99.90;;;;;;5002271;28;20037;-68
2023/04/15 01:32:02;;;;;;;13.82;9.73;;;6.30;99.90;;;;;;4990127;28;20057;-68
2023/04/15 01:34:27;;;;;;;13.88;9.95;;;6.20;99.90;;;;;;4987339;28;20415;-68
2023/04/15 01:36:56;;;;;;;12.45;9.57;;;6.20;99.90;;;;;;5001875;28;20132;-68
2023/04/15 01:39:22;;;;;;;11.65;9.98;;;6.10;99.90;;;;;;5005909;28;20037;-69
2023/04/15 01:41:48;;;;;;;12.23;10.50;;;6.10;99.90;;;;;;5002360;28;20246;-69
2023/04/15 01:44:14;;;;;;;15.65;10.45;;;6.00;99.90;;;;;;4991283;28;21158;-69
2023/04/15 01:46:39;;;;;;;11.30;10.10;;;6.00;99.90;;;;;;4994939;28;20049;-68
2023/04/15 01:49:06;;;;;;;14.43;10.90;;;6.00;99.90;;;;;;4988460;28;20057;-69
2023/04/15 01:51:32;;;;;;;13.45;10.68;;;6.00;99.90;;;;;;4988438;28;20048;-72
2023/04/15 01:53:58;;;;;;;14.13;10.68;;;6.00;99.90;;;;;;5004690;28;20045;-72
2023/04/15 01:56:27;;;;;;;14.00;11.45;;;5.90;99.90;;;;;;5004286;28;20046;-73
2023/04/15 01:58:52;;;;;;;16.15;11.55;;;5.90;99.90;;;;;;5003090;28;20042;-68
2023/04/15 02:01:18;;;;;;;17.30;11.60;;;5.90;99.90;;;;;;4989425;28;20046;-68
2023/04/15 02:03:45;;;;;;;14.00;11.40;;;5.90;99.90;;;;;;4990887;28;20072;-68
2023/04/15 02:06:11;;;;;;;12.57;10.77;;;5.80;99.90;;;;;;5001870;28;20045;-68
2023/04/15 02:08:40;;;;;;;13.88;11.18;;;5.80;99.90;;;;;;5010536;28;20863;-68
2023/04/15 02:11:06;;;;;;;16.25;11.27;;;5.70;99.90;;;;;;5008524;28;20403;-72
2023/04/15 02:13:32;;;;;;;17.52;11.43;;;5.70;99.90;;;;;;5009080;28;20266;-71
2023/04/15 02:16:00;;;;;;;15.80;12.07;;;5.60;99.90;;;;;;5010201;28;20041;-72
2023/04/15 02:18:26;;;;;;;16.63;13.25;;;5.60;99.90;;;;;;4993634;28;20428;-72
2023/04/15 02:20:52;;;;;;;15.43;12.00;;;5.60;99.90;;;;;;5008042;28;20065;-71
2023/04/15 02:23:18;;;;;;;17.98;13.00;;;5.60;99.90;;;;;;5010020;28;20172;-71
2023/04/15 02:25:43;;;;;;;15.63;12.45;;;5.50;99.90;;;;;;5007522;28;20637;-72
2023/04/15 02:28:09;;;;;;;14.68;12.90;;;5.50;99.90;;;;;;5011734;28;20095;-71
2023/04/15 02:30:35;;;;;;;15.75;12.52;;;5.50;99.90;;;;;;5009099;28;20033;-72
2023/04/15 02:33:02;;;;;;;14.63;12.80;;;5.50;99.90;;;;;;4991571;28;20085;-72
2023/04/15 02:35:28;;;;;;;15.75;13.20;;;5.50;99.90;;;;;;5010113;28;20045;-71
2023/04/15 02:37:56;;;;;;;14.90;12.10;;;5.50;99.90;;;;;;5009071;28;20042;-71
2023/04/15 02:40:22;;;;;;;16.00;13.10;;;5.40;99.90;;;;;;5010279;28;20064;-71
2023/04/15 02:42:48;;;;;;;16.48;13.30;;;5.40;99.90;;;;;;4991600;28;20423;-71
2023/04/15 02:45:14;;;;;;;15.27;12.98;;;5.40;99.90;;;;;;5010078;28;20056;-71
2023/04/15 02:47:40;;;;;;;18.27;14.20;;;5.30;99.90;;;;;;5009015;28;20037;-71
2023/04/15 02:50:12;;;;;;;16.17;13.60;;;5.30;99.90;;;;;;5024921;28;20076;-72
2023/04/15 02:52:41;;;;;;;17.88;14.82;;;5.30;99.90;;;;;;5021730;28;20049;-72
2023/04/15 02:55:08;;;;;;;15.98;13.85;;;5.30;99.90;;;;;;5023317;28;20053;-71
2023/04/15 02:57:36;;;;;;;15.50;13.88;;;5.20;99.90;;;;;;5007969;28;20809;-72
2023/04/15 03:00:03;;;;;;;18.02;15.02;;;5.20;99.90;;;;;;4991232;28;20061;-72
2023/04/15 03:02:36;;;;;;;17.15;14.32;;;5.20;99.90;;;;;;5024943;28;20527;-71
2023/04/15 03:05:03;;;;;;;16.08;14.10;;;5.20;99.90;;;;;;5025559;28;20045;-68
2023/04/15 03:07:29;;;;;;;19.27;14.48;;;5.20;99.90;;;;;;5007548;28;20913;-68
2023/04/15 03:09:54;;;;;;;19.27;14.82;;;5.20;99.90;;;;;;4989471;28;20068;-68
2023/04/15 03:12:20;;;;;;;21.05;14.80;;;5.20;99.90;;;;;;5024791;28;20132;-68
2023/04/15 03:14:46;;;;;;;17.95;15.05;;;5.20;99.90;;;;;;4992730;28;20045;-68
2023/04/15 03:17:12;;;;;;;21.10;14.25;;;5.20;99.90;;;;;;4990757;28;20465;-68
2023/04/15 03:19:37;;;;;;;19.73;14.32;;;5.20;99.90;;;;;;4992353;28;20049;-68
2023/04/15 03:22:03;;;;;;;16.75;14.93;;;5.10;99.90;;;;;;5009370;28;20136;-68
2023/04/15 03:24:29;;;;;;;18.60;14.40;;;5.10;99.90;;;;;;5009204;28;20496;-68
2023/04/15 03:26:56;;;;;;;15.63;13.45;;;5.10;99.90;;;;;;4976706;28;20124;-68
2023/04/15 03:29:22;;;;;;;17.13;14.48;;;5.10;99.90;;;;;;4992995;28;20041;-68
2023/04/15 03:31:48;;;;;;;18.67;15.85;;;5.10;99.90;;;;;;4993851;28;20038;-68
2023/04/15 03:34:14;;;;;;;17.98;15.20;;;5.10;99.90;;;;;;5009151;28;20137;-68
2023/04/15 03:36:40;;;;;;;17.67;15.27;;;5.00;99.90;;;;;;4992369;28;20041;-68
2023/04/15 03:39:06;;;;;;;16.23;14.52;;;5.00;99.90;;;;;;4992417;28;20150;-68
2023/04/15 03:41:32;;;;;;;16.58;14.80;;;5.00;99.90;;;;;;5007093;28;20228;-68
2023/04/15 03:43:58;;;;;;;16.50;14.80;;;4.90;99.90;;;;;;5003313;28;20056;-68
2023/04/15 03:46:27;;;;;;;16.98;14.45;;;4.80;99.90;;;;;;4992384;28;20057;-68
2023/04/15 03:48:52;;;;;;;16.08;14.48;;;4.80;99.90;;;;;;5007461;28;20033;-68
2023/04/15 03:51:18;;;;;;;16.60;14.82;;;4.70;99.90;;;;;;5007790;28;20288;-68
2023/04/15 03:53:44;;;;;;;16.75;14.82;;;4.70;99.90;;;;;;4989029;28;20208;-70
2023/04/15 03:56:10;;;;;;;18.27;16.38;;;4.60;99.90;;;;;;4992063;28;20033;-70
2023/04/15 03:58:36;;;;;;;18.65;16.70;;;4.60;99.90;;;;;;5004357;28;20042;-70
2023/04/15 04:01:02;;;;;;;19.25;17.02;;;4.60;99.90;;;;;;4992275;28;20042;-69
2023/04/15 04:03:28;;;;;;;19.63;17.52;;;4.70;99.90;;;;;;5002588;28;21010;-68
2023/04/15 04:05:56;;;;;;;20.55;18.38;;;4.80;99.90;;;;;;5007932;28;20033;-68
2023/04/15 04:08:22;;;;;;;19.88;17.33;;;4.80;99.90;;;;;;4993547;28;20049;-68
2023/04/15 04:10:48;;;;;;;20.20;18.10;;;4.80;99.90;;;;;;5006510;28;20037;-68
2023/04/15 04:13:14;;;;;;;20.17;18.08;;;4.80;99.90;;;;;;4991150;28;20049;-68
2023/04/15 04:15:40;;;;;;;20.88;17.25;;;4.80;99.90;;;;;;5006964;28;20042;-68
2023/04/15 04:18:06;;;;;;;19.42;17.30;;;4.80;99.90;;;;;;5009094;28;20268;-70
2023/04/15 04:20:32;;;;;;;20.25;18.08;;;4.80;99.90;;;;;;5005792;28;20212;-70
2023/04/15 04:22:58;;;;;;;19.95;17.35;;;4.70;99.90;;;;;;4992183;28;20057;-68
2023/04/15 04:25:27;;;;;;;21.23;18.70;;;4.80;99.90;;;;;;4992847;28;20056;-68
2023/04/15 04:27:52;;;;;;;20.80;18.60;;;4.80;99.90;;;;;;4985527;28;20042;-68
2023/04/15 04:30:18;;;;;;;20.15;18.08;;;4.80;99.90;;;;;;4976034;28;20060;-68
2023/04/15 04:32:44;;;;;;;22.17;19.85;;;4.80;99.90;;;;;;4991573;28;20096;-68
2023/04/15 04:35:10;;;;;;;21.25;19.05;;;4.80;99.90;;;;;;4991155;28;20061;-68
2023/04/15 04:37:36;;;;;;;21.30;18.48;;;4.80;99.90;;;;;;4974602;28;20049;-68
2023/04/15 04:40:03;;;;;;;20.10;17.95;;;4.80;99.90;;;;;;5009063;28;20045;-68
2023/04/15 04:42:30;;;;;;;19.83;17.83;;;4.80;99.90;;;;;;5001932;28;20562;-71
2023/04/15 04:44:56;;;;;;;21.73;19.10;;;4.80;99.90;;;;;;5003436;28;20159;-71
2023/04/15 04:47:22;;;;;;;22.67;19.77;;;4.80;99.90;;;;;;5004919;28;20140;-71
2023/04/15 04:49:47;;;;;;;22.95;20.05;;;4.80;99.90;;;;;;4973774;28;20077;-72
2023/04/15 04:52:13;;;;;;;23.45;21.02;;;4.70;99.90;;;;;;4989595;28;20309;-72
2023/04/15 04:54:39;;;;;;;22.73;20.40;;;4.80;99.90;;;;;;4990138;28;20095;-72
2023/04/15 04:57:06;;;;;;;23.92;20.00;;;4.80;99.90;;;;;;5001117;28;20041;-72
2023/04/15 04:59:35;;;;;;;25.40;21.77;;;4.80;99.90;;;;;;5015258;28;20110;-72
2023/04/15 05:02:02;;;;;;;25.23;22.52;;;4.80;99.90;;;;;;5002891;28;20053;-71
2023/04/15 05:04:27;;;;;;;26.90;24.00;;;4.80;99.90;;;;;;5006616;28;20057;-71
2023/04/15 05:06:56;;;;;;;27.55;23.52;;;4.80;99.90;;;;;;4988461;28;20067;-72
2023/04/15 05:09:22;;;;;;;26.45;23.48;;;4.80;99.90;;;;;;5016281;28;20072;-72
2023/04/15 05:11:48;;;;;;;32.00;26.23;;;4.80;99.90;;;;;;5004876;28;20042;-71
2023/04/15 05:14:15;;;;;;;30.35;26.83;;;4.80;99.90;;;;;;5005307;28;20080;-71
2023/04/15 05:16:41;;;;;;;26.27;23.52;;;4.80;99.90;;;;;;4989519;28;20976;-71
2023/04/15 05:19:06;;;;;;;31.60;27.92;;;4.80;99.90;;;;;;4987913;28;20725;-71
2023/04/15 05:21:32;;;;;;;35.13;29.50;;;4.80;99.90;;;;;;4997492;28;20050;-71
2023/04/15 05:23:58;;;;;;;33.25;28.40;;;4.80;99.90;;;;;;5004071;28;20033;-71
2023/04/15 05:26:24;;;;;;;34.67;28.55;;;4.90;99.90;;;;;;5004933;28;20512;-71
2023/04/15 05:28:50;;;;;;;29.48;25.48;;;4.90;99.90;;;;;;5003536;28;20566;-71
2023/04/15 05:31:16;;;;;;;35.75;29.55;;;4.90;99.90;;;;;;5019121;28;20084;-71
2023/04/15 05:33:41;;;;;;;32.55;27.98;;;4.90;99.90;;;;;;5003087;28;20136;-73
2023/04/15 05:36:07;;;;;;;29.08;25.45;;;4.90;99.90;;;;;;5003683;28;20042;-72
2023/04/15 05:38:33;;;;;;;29.50;26.30;;;5.00;99.90;;;;;;5005884;28;20528;-71
2023/04/15 05:40:59;;;;;;;31.70;28.20;;;5.00;99.90;;;;;;5009012;28;20046;-71
2023/04/15 05:43:25;;;;;;;32.85;29.25;;;5.10;99.90;;;;;;5009768;28;20111;-71
2023/04/15 05:45:51;;;;;;;32.17;28.30;;;5.10;99.90;;;;;;4992911;28;20124;-71
2023/04/15 05:48:16;;;;;;;34.00;28.50;;;5.20;99.90;;;;;;5009531;28;20050;-71
2023/04/15 05:50:42;;;;;;;33.80;28.38;;;5.20;99.90;;;;;;4994744;28;20033;-72
2023/04/15 05:53:08;;;;;;;30.33;26.67;;;5.30;99.90;;;;;;5010130;28;20883;-72
2023/04/15 05:55:34;;;;;;;30.95;27.33;;;5.30;99.90;;;;;;5010351;28;20088;-71
2023/04/15 05:58:00;;;;;;;29.67;26.60;;;5.40;99.90;;;;;;5008407;28;20049;-71
2023/04/15 06:00:26;;;;;;;29.00;25.73;;;5.40;99.90;;;;;;5009651;28;20131;-72
2023/04/15 06:02:51;;;;;;;27.83;24.92;;;5.50;99.90;;;;;;5009830;28;20072;-71
2023/04/15 06:05:17;;;;;;;27.60;24.73;;;5.50;99.90;;;;;;5010758;28;20538;-72
2023/04/15 06:07:43;;;;;;;30.33;25.52;;;5.60;99.90;;;;;;4993047;28;20047;-68
2023/04/15 06:10:09;;;;;;;26.42;23.73;;;5.60;99.90;;;;;;4990809;28;20053;-69
2023/04/15 06:12:35;;;;;;;24.15;21.70;;;5.70;99.90;;;;;;5006066;28;20075;-68
2023/04/15 06:15:01;;;;;;;25.70;22.95;;;5.70;99.90;;;;;;4989208;28;20674;-69
2023/04/15 06:17:29;;;;;;;26.50;23.67;;;5.80;99.90;;;;;;5008143;28;20053;-70
2023/04/15 06:19:58;;;;;;;26.75;23.88;;;5.90;99.90;;;;;;4991556;28;20815;-70
2023/04/15 06:22:30;;;;;;;24.58;22.08;;;6.00;99.90;;;;;;4976047;28;20064;-68
2023/04/15 06:24:56;;;;;;;27.75;24.02;;;6.10;99.90;;;;;;4990197;28;20928;-68
2023/04/15 06:27:31;;;;;;;25.08;22.48;;;6.20;99.90;;;;;;4991445;28;20421;-68
2023/04/15 06:29:56;;;;;;;26.27;23.55;;;6.30;99.90;;;;;;5006677;28;20520;-68
2023/04/15 06:32:22;;;;;;;25.73;23.02;;;6.40;99.90;;;;;;4992573;28;20535;-68
2023/04/15 06:34:48;;;;;;;23.98;21.40;;;6.40;99.90;;;;;;4973862;28;20088;-68
2023/04/15 06:37:15;;;;;;;24.73;22.23;;;6.50;99.90;;;;;;5005571;28;20316;-68
2023/04/15 06:39:44;;;;;;;24.25;21.70;;;6.60;99.90;;;;;;4990483;28;20115;-68
2023/04/15 06:42:10;;;;;;;24.85;22.25;;;6.70;99.90;;;;;;5006494;28;20058;-68
2023/04/15 06:44:37;;;;;;;22.80;20.42;;;6.80;99.90;;;;;;5007985;28;20049;-69
2023/04/15 06:47:03;;;;;;;23.15;20.60;;;6.90;99.90;;;;;;4988806;28;20058;-68
2023/04/15 06:49:28;;;;;;;24.48;21.88;;;7.00;99.90;;;;;;5006374;28;20172;-68
2023/04/15 06:51:54;;;;;;;24.83;22.23;;;7.20;99.90;;;;;;5006955;28;20099;-68
2023/04/15 06:54:26;;;;;;;23.90;21.35;;;7.30;99.90;;;;;;4976700;28;20436;-69
2023/04/15 06:56:52;;;;;;;23.08;20.77;;;7.40;99.90;;;;;;4990023;28;20508;-68
2023/04/15 06:59:18;;;;;;;22.38;20.08;;;7.50;99.90;;;;;;5008829;28;20121;-68
2023/04/15 07:01:43;;;;;;;21.50;19.23;;;7.60;99.90;;;;;;5005044;28;20357;-68
2023/04/15 07:04:10;;;;;;;22.23;19.90;;;7.60;99.90;;;;;;5018313;28;20052;-68
2023/04/15 07:06:39;;;;;;;20.67;18.50;;;7.70;99.90;;;;;;4991335;28;21086;-69
2023/04/15 07:09:04;;;;;;;20.45;18.15;;;7.80;99.90;;;;;;5006226;28;20378;-68
2023/04/15 07:11:30;;;;;;;20.38;18.27;;;7.80;99.90;;;;;;5006678;28;20099;-68
2023/04/15 07:13:59;;;;;;;20.08;17.98;;;7.90;99.90;;;;;;5007014;28;20042;-68
2023/04/15 07:16:28;;;;;;;20.55;18.45;;;7.90;99.90;;;;;;5007673;28;20111;-68
2023/04/15 07:18:54;;;;;;;21.65;18.85;;;7.90;99.90;;;;;;5004883;28;20045;-68
2023/04/15 07:21:20;;;;;;;19.15;17.15;;;8.00;99.90;;;;;;4990711;28;20057;-68
2023/04/15 07:23:46;;;;;;;17.73;15.85;;;8.10;99.90;;;;;;4985667;28;20056;-68
2023/04/15 07:26:12;;;;;;;20.02;17.77;;;8.10;99.90;;;;;;4989381;28;20511;-68
2023/04/15 07:28:38;;;;;;;18.70;16.70;;;8.20;99.90;;;;;;5007717;28;20044;-68
2023/04/15 07:31:04;;;;;;;17.92;16.02;;;8.20;99.90;;;;;;5010108;28;20552;-68
2023/04/15 07:33:32;;;;;;;16.80;15.05;;;8.30;99.90;;;;;;4991287;28;21350;-69
2023/04/15 07:36:01;;;;;;;16.83;15.13;;;8.30;99.90;;;;;;4992606;28;21483;-68
2023/04/15 07:38:27;;;;;;;16.67;14.77;;;8.40;99.90;;;;;;4991216;28;20060;-68
2023/04/15 07:40:57;;;;;;;16.50;14.77;;;8.50;99.90;;;;;;5009373;28;20041;-68
2023/04/15 07:43:22;;;;;;;18.67;13.77;;;8.60;99.90;;;;;;5009143;28;20141;-68
2023/04/15 07:45:48;;;;;;;16.63;14.82;;;8.60;99.90;;;;;;5011528;28;20474;-72
2023/04/15 07:48:14;;;;;;;16.80;13.82;;;8.60;99.90;;;;;;5008661;28;20056;-73
2023/04/15 07:50:39;;;;;;;14.45;12.88;;;8.70;99.90;;;;;;5007821;28;20444;-72
2023/04/15 07:53:06;;;;;;;14.68;13.10;;;8.80;99.90;;;;;;5007896;28;20076;-69
2023/04/15 07:55:32;;;;;;;15.18;12.75;;;8.90;99.90;;;;;;4974947;28;20052;-69
2023/04/15 07:57:57;;;;;;;13.60;12.20;;;8.90;99.90;;;;;;5009689;28;20045;-67
2023/04/15 08:00:27;;;;;;;12.93;11.40;;;8.90;99.90;;;;;;5007719;28;20049;-68
2023/04/15 08:02:56;;;;;;;13.00;11.07;;;9.00;99.90;;;;;;5006131;28;20072;-68
2023/04/15 08:05:22;;;;;;;11.88;10.35;;;9.00;99.90;;;;;;4977627;28;20140;-68
2023/04/15 08:07:47;;;;;;;11.52;9.93;;;9.00;99.90;;;;;;5008608;28;20486;-68
2023/04/15 08:10:13;;;;;;;13.80;9.52;;;9.10;99.90;;;;;;5022662;28;20834;-68
2023/04/15 08:12:40;;;;;;;13.23;9.23;;;9.10;99.90;;;;;;5007781;28;20748;-68
2023/04/15 08:15:07;;;;;;;10.93;8.57;;;9.20;99.90;;;;;;5007065;28;20734;-68
2023/04/15 08:17:33;;;;;;;10.25;8.57;;;9.20;99.90;;;;;;5005739;28;20052;-68
2023/04/15 08:19:59;;;;;;;8.43;7.45;;;9.20;99.90;;;;;;5006431;28;20316;-68
2023/04/15 08:22:26;;;;;;;12.05;8.05;;;9.20;99.90;;;;;;4976609;28;20133;-68
2023/04/15 08:24:52;;;;;;;11.45;7.68;;;9.20;99.90;;;;;;5023340;28;20072;-68
2023/04/15 08:27:19;;;;;;;10.70;7.28;;;9.20;99.90;;;;;;4998054;28;20887;-70
2023/04/15 08:29:44;;;;;;;8.77;7.38;;;9.30;99.90;;;;;;5005639;28;20065;-69
2023/04/15 08:32:10;;;;;;;9.40;7.32;;;9.40;99.90;;;;;;5007760;28;20121;-68
2023/04/15 08:34:36;;;;;;;10.00;6.88;;;9.50;99.90;;;;;;5022319;28;20412;-69
2023/04/15 08:37:02;;;;;;;8.63;7.00;;;9.70;99.90;;;;;;4989305;28;20053;-68
2023/04/15 08:39:27;;;;;;;8.98;7.35;;;9.70;99.90;;;;;;4983509;28;20671;-68
2023/04/15 08:42:06;;;;;;;9.13;7.85;;;9.80;99.90;;;;;;5005327;28;20080;-69
2023/04/15 08:44:34;;;;;;;8.77;7.15;;;9.70;99.90;;;;;;5020968;28;20152;-68
2023/04/15 08:47:06;;;;;;;10.20;7.13;;;9.80;99.90;;;;;;4990794;28;20504;-68
2023/04/15 08:49:38;;;;;;;11.52;7.95;;;9.70;99.90;;;;;;4989796;28;20057;-69
2023/04/15 08:52:04;;;;;;;11.50;7.55;;;9.70;99.90;;;;;;4988539;28;20049;-68
2023/04/15 08:54:31;;;;;;;11.45;7.55;;;9.70;99.90;;;;;;5000821;28;20136;-68
2023/04/15 08:56:57;;;;;;;9.52;7.03;;;9.70;99.90;;;;;;5006226;28;20096;-68
2023/04/15 08:59:24;;;;;;;9.75;7.60;;;9.70;99.90;;;;;;5007581;28;20041;-68
2023/04/15 09:01:51;;;;;;;9.70;8.35;;;9.70;99.90;;;;;;4990125;28;20127;-68
2023/04/15 09:04:17;;;;;;;8.63;7.60;;;9.60;99.90;;;;;;5007009;28;20054;-68
2023/04/15 09:06:43;;;;;;;9.40;6.70;;;9.60;99.90;;;;;;5006745;28;20057;-67
2023/04/15 09:09:11;;;;;;;9.52;6.60;;;9.50;99.90;;;;;;5005455;28;20377;-68
2023/04/15 09:11:36;;;;;;;8.50;6.38;;;9.60;99.90;;;;;;5007131;28;20056;-68
2023/04/15 09:14:02;;;;;;;8.68;6.30;;;9.60;99.90;;;;;;4989729;28;20042;-68
2023/04/15 09:16:28;;;;;;;10.02;6.68;;;9.50;99.90;;;;;;4992005;28;20056;-68
2023/04/15 09:18:57;;;;;;;7.88;6.05;;;9.50;99.90;;;;;;4975427;28;20050;-71
2023/04/15 09:21:26;;;;;;;9.35;5.70;;;9.40;99.90;;;;;;4975675;28;20548;-71
2023/04/15 09:23:56;;;;;;;8.20;5.00;;;9.40;99.90;;;;;;4992093;28;20041;-70
2023/04/15 09:26:49;;;;;;;;;;;9.40;99.90;;;;;;5006574;28;20052;-68
2023/04/15 09:29:14;;;;;;;8.02;5.82;;;9.40;99.90;;;;;;5004225;28;19933;-69
2023/04/15 09:31:41;;;;;;;7.75;5.63;;;9.40;99.90;;;;;;4972906;28;20045;-69
2023/04/15 09:34:11;;;;;;;9.23;5.82;;;9.40;99.90;;;;;;5017739;28;20056;-68
2023/04/15 09:36:46;;;;;;;6.68;4.47;;;9.40;99.90;;;;;;5006416;28;20103;-68
2023/04/15 09:39:12;;;;;;;7.50;3.92;;;9.40;99.90;;;;;;5004873;28;20053;-68
2023/04/15 09:41:39;;;;;;;5.88;3.55;;;9.40;99.90;;;;;;5006732;28;20106;-72
2023/04/15 09:44:05;;;;;;;7.10;4.18;;;9.40;99.90;;;;;;5006492;28;20087;-68
2023/04/15 09:46:44;;;;;;;6.22;3.75;;;9.50;99.90;;;;;;4990202;28;20484;-68
2023/04/15 09:49:11;;;;;;;6.13;3.42;;;9.50;99.90;;;;;;5003538;28;20046;-69
2023/04/15 09:51:38;;;;;;;5.85;3.25;;;9.60;99.90;;;;;;4989925;28;20042;-68
2023/04/15 09:54:04;;;;;;;8.02;3.25;;;9.60;99.90;;;;;;4987283;28;20470;-68
2023/04/15 09:56:40;;;;;;;6.93;3.47;;;9.60;99.90;;;;;;5004912;28;20057;-69
2023/04/15 09:59:06;;;;;;;6.28;3.03;;;9.70;99.90;;;;;;5006265;28;20041;-70
2023/04/15 10:01:32;;;;;;;7.28;3.20;;;9.60;99.90;;;;;;5005021;28;20091;-70
2023/04/15 10:04:05;;;;;;;7.40;3.30;;;9.60;99.90;;;;;;5021867;28;20048;-69
2023/04/15 10:06:32;;;;;;;4.82;2.80;;;9.70;99.90;;;;;;4990225;28;20194;-69
2023/04/15 10:08:58;;;;;;;7.22;3.15;;;9.70;99.90;;;;;;5003835;28;20065;-68
2023/04/15 10:11:31;;;;;;;5.22;2.72;;;9.80;99.90;;;;;;5005802;28;20064;-70
2023/04/15 10:13:57;;;;;;;3.85;2.45;;;9.80;99.90;;;;;;4990652;28;20728;-68
2023/04/15 10:16:27;;;;;;;5.10;2.85;;;9.90;99.90;;;;;;4989455;28;20052;-69
2023/04/15 10:19:00;;;;;;;4.60;2.60;;;9.90;99.90;;;;;;5004450;28;20420;-69
2023/04/15 10:21:27;;;;;;;5.15;2.70;;;9.90;99.90;;;;;;5005791;28;20053;-69
2023/04/15 10:23:56;;;;;;;4.07;2.45;;;9.90;99.90;;;;;;5007035;28;20049;-68
2023/04/15 10:26:23;;;;;;;2.95;1.92;;;10.00;99.90;;;;;;4990564;28;20465;-71
2023/04/15 10:28:51;;;;;;;3.70;2.42;;;10.00;99.90;;;;;;5025983;28;20073;-70
2023/04/15 10:31:17;;;;;;;8.27;2.30;;;10.00;99.90;;;;;;4984280;28;20515;-69
2023/04/15 10:33:44;;;;;;;4.88;2.45;;;10.00;99.90;;;;;;5009783;28;20544;-71
2023/04/15 10:36:11;;;;;;;7.10;2.80;;;10.00;99.90;;;;;;5010068;28;20136;-69
2023/04/15 10:38:40;;;;;;;4.20;2.65;;;10.00;99.90;;;;;;5008537;28;20045;-69
2023/04/15 10:41:20;;;;;;;3.92;2.35;;;9.90;99.90;;;;;;5007427;28;20115;-69
2023/04/15 10:44:00;;;;;;;4.40;2.25;;;9.90;99.90;;;;;;4999278;28;20048;-69
2023/04/15 10:46:38;;;;;;;;;;;10.00;99.90;;;;;;5009478;28;20049;-69
2023/04/15 10:49:30;;;;;;;4.47;2.03;;;9.90;99.90;;;;;;5007397;28;19929;-72
2023/04/15 10:52:00;;;;;;;5.10;2.35;;;9.90;99.90;;;;;;4989512;28;20104;-72
2023/04/15 10:54:25;;;;;;;5.40;2.63;;;10.00;99.90;;;;;;5007983;28;20064;-68
2023/04/15 10:57:13;;;;;;;4.40;2.28;;;10.00;99.90;;;;;;5007822;28;20053;-69
2023/04/15 10:59:57;;;;;;;4.15;2.58;;;10.00;99.90;;;;;;5020491;28;20077;-68
2023/04/15 11:02:56;;;;;;;6.38;2.63;;;10.00;99.90;;;;;;4990601;28;20073;-68
2023/04/15 11:05:41;;;;;;;4.30;2.38;;;9.80;99.90;;;;;;5007055;28;20048;-68
2023/04/15 11:08:11;;;;;;;4.65;2.03;;;9.90;99.90;;;;;;5012208;28;20057;-68
2023/04/15 11:10:50;;;;;;;4.75;2.45;;;9.90;99.90;;;;;;5019859;28;20049;-69
2023/04/15 11:13:20;;;;;;;3.85;2.10;;;9.90;99.90;;;;;;5006864;28;20041;-69
2023/04/15 11:15:47;;;;;;;3.72;1.80;;;10.00;99.90;;;;;;4973516;28;20524;-69
2023/04/15 11:18:21;;;;;;;4.60;1.95;;;10.00;99.90;;;;;;5006460;28;20045;-68
2023/04/15 11:21:11;;;;;;;5.03;2.42;;;9.90;99.90;;;;;;5017976;28;20157;-70
2023/04/15 11:23:40;;;;;;;6.63;2.33;;;10.00;99.90;;;;;;5005246;28;20068;-69
2023/04/15 11:26:14;;;;;;;6.30;2.50;;;10.00;99.90;;;;;;5006237;28;20043;-70
2023/04/15 11:28:44;;;;;;;6.43;2.72;;;10.00;99.90;;;;;;4991091;28;20204;-69
2023/04/15 11:31:18;;;;;;;5.35;2.40;;;9.90;99.90;;;;;;5008664;28;20057;-69
2023/04/15 11:34:04;;;;;;;6.32;2.88;;;9.90;99.90;;;;;;4989924;28;20049;-70
2023/04/15 11:36:33;;;;;;;7.38;2.80;;;9.90;99.90;;;;;;5005362;28;20140;-70
2023/04/15 11:38:59;;;;;;;6.70;3.05;;;9.80;99.90;;;;;;5007525;28;20095;-70
2023/04/15 11:41:25;;;;;;;8.00;3.70;;;9.80;99.90;;;;;;4992151;28;20504;-70
2023/04/15 11:43:51;;;;;;;7.53;3.33;;;9.90;99.90;;;;;;5002958;28;20046;-70
2023/04/15 11:46:17;;;;;;;7.13;3.20;;;9.90;99.90;;;;;;5024552;28;20072;-70
2023/04/15 11:48:45;;;;;;;7.75;3.08;;;9.80;99.90;;;;;;5005829;28;20045;-70
2023/04/15 11:51:12;;;;;;;7.88;2.97;;;9.80;99.90;;;;;;5006078;28;20037;-71
2023/04/15 11:53:56;;;;;;;7.57;3.05;;;9.70;99.90;;;;;;4980426;28;20502;-70
2023/04/15 11:56:24;;;;;;;6.03;2.90;;;9.70;99.90;;;;;;4995988;28;20044;-70
2023/04/15 11:58:58;;;;;;;6.78;3.30;;;9.80;99.90;;;;;;5022255;28;20041;-70
2023/04/15 12:01:34;;;;;;;9.52;3.40;;;9.70;99.90;;;;;;5007215;28;20056;-70
2023/04/15 12:04:00;;;;;;;9.25;3.20;;;9.70;99.90;;;;;;5007304;28;20052;-70
2023/04/15 12:06:33;;;;;;;7.32;2.72;;;9.70;99.90;;;;;;5024319;28;20381;-70
2023/04/15 12:09:13;;;;;;;7.82;2.70;;;9.80;99.90;;;;;;4991221;28;20129;-70
2023/04/15 12:11:47;;;;;;;6.50;2.60;;;9.80;99.90;;;;;;5003590;28;20084;-70
2023/04/15 12:14:32;;;;;;;6.18;2.40;;;9.80;99.90;;;;;;4989836;28;20049;-71
2023/04/15 12:17:00;;;;;;;6.53;2.40;;;9.90;99.90;;;;;;5001143;28;20114;-71
2023/04/15 12:19:27;;;;;;;6.75;2.40;;;9.90;99.90;;;;;;4992672;28;20050;-71
2023/04/15 12:21:58;;;;;;;17.17;4.13;;;9.80;99.90;;;;;;5007739;28;20053;-70
2023/04/15 12:24:33;;;;;;;7.03;2.70;;;9.90;99.90;;;;;;4982515;28;20926;-69
2023/04/15 12:27:11;;;;;;;9.57;2.50;;;9.90;99.90;;;;;;4993284;28;20106;-69
2023/04/15 12:29:38;;;;;;;8.85;2.67;;;9.90;99.90;;;;;;4961092;28;20049;-69
2023/04/15 12:32:19;;;;;;;7.80;2.53;;;9.90;99.90;;;;;;4978309;28;20048;-71
2023/04/15 12:34:53;;;;;;;8.20;2.30;;;9.90;99.90;;;;;;4961677;28;20068;-70
2023/04/15 12:37:21;;;;;;;9.63;3.00;;;9.90;99.90;;;;;;4978730;28;20110;-70
2023/04/15 12:39:48;;;;;;;7.75;2.22;;;9.90;99.90;;;;;;4995484;28;20057;-70
2023/04/15 12:42:15;;;;;;;11.55;2.72;;;9.90;99.90;;;;;;5019561;28;20049;-71
2023/04/15 12:44:41;;;;;;;7.72;2.28;;;9.80;99.90;;;;;;5014957;28;20080;-70
2023/04/15 12:47:08;;;;;;;10.52;2.70;;;9.80;99.90;;;;;;5034782;28;20077;-70
2023/04/15 12:49:34;;;;;;;9.02;2.65;;;9.80;99.90;;;;;;5015525;28;21086;-70